Time;durP1;ratioP1;P1;durP2;ratioP2;P2;SDS_P1;SDS_P2;PMS_P1;PMS_P2;Temp;Humidity;BMP_temperature;BMP_pressure;BME280_temperature;BME280_humidity;BME280_pressure;Samples;Min_cycle;Max_cycle;Signal;HPM_P1;HPM_P2
2022/10/19 00:00:27;;;;;;;10.88;4.15;;;;;;;;;;5075369;28;20876;-72
2022/10/19 00:02:53;;;;;;;5.97;3.65;;;;;;;;;;5078576;28;21305;-72
2022/10/19 00:05:20;;;;;;;7.32;3.50;;;;;;;;;;5079619;28;20043;-72
2022/10/19 00:07:46;;;;;;;7.47;3.80;;;;;;;;;;5075672;28;20060;-72
2022/10/19 00:10:12;;;;;;;8.30;4.03;;;;;;;;;;5058629;28;20086;-72
2022/10/19 00:12:38;;;;;;;6.38;4.20;;;;;;;;;;5077288;28;20036;-71
2022/10/19 00:15:05;;;;;;;8.55;3.85;;;;;;;;;;5074937;28;20613;-72
2022/10/19 00:17:31;;;;;;;7.18;4.30;;;;;;;;;;5072769;28;20094;-72
2022/10/19 00:19:57;;;;;;;6.97;4.18;;;;;;;;;;5059833;28;20048;-72
2022/10/19 00:22:23;;;;;;;6.82;3.72;;;;;;;;;;5076779;28;20040;-71
2022/10/19 00:24:49;;;;;;;6.22;4.32;;;;;;;;;;5075432;28;20040;-71
2022/10/19 00:27:16;;;;;;;6.70;4.30;;;;;;;;;;5053397;28;20045;-71
2022/10/19 00:29:42;;;;;;;11.88;4.35;;;;;;;;;;5058170;28;20036;-71
2022/10/19 00:32:08;;;;;;;5.88;4.47;;;;;;;;;;5045071;28;20048;-72
2022/10/19 00:34:34;;;;;;;7.03;4.25;;;;;;;;;;5052744;28;20045;-71
2022/10/19 00:37:00;;;;;;;8.00;4.20;;;;;;;;;;5064186;28;20095;-71
2022/10/19 00:39:26;;;;;;;5.88;3.97;;;;;;;;;;5048892;28;20515;-72
2022/10/19 00:41:52;;;;;;;10.05;3.83;;;;;;;;;;5056168;28;20043;-71
2022/10/19 00:44:18;;;;;;;9.45;3.88;;;;;;;;;;5059213;28;20040;-72
2022/10/19 00:46:47;;;;;;;9.13;5.05;;;;;;;;;;5073009;28;20541;-71
2022/10/19 00:49:15;;;;;;;5.13;3.70;;;;;;;;;;5039065;28;20037;-71
2022/10/19 00:51:43;;;;;;;9.23;4.70;;;;;;;;;;5068656;28;20044;-71
2022/10/19 00:54:09;;;;;;;7.03;4.43;;;;;;;;;;5052545;28;20139;-71
2022/10/19 00:56:38;;;;;;;10.45;4.13;;;;;;;;;;5071422;28;20048;-71
2022/10/19 00:59:05;;;;;;;9.90;3.97;;;;;;;;;;5072821;28;20052;-72
2022/10/19 01:01:32;;;;;;;7.75;4.20;;;;;;;;;;5070012;28;20106;-71
2022/10/19 01:03:59;;;;;;;6.10;4.45;;;;;;;;;;5052573;28;20044;-72
2022/10/19 01:06:25;;;;;;;5.40;3.97;;;;;;;;;;5073560;28;20118;-71
2022/10/19 01:08:52;;;;;;;6.63;4.00;;;;;;;;;;5063199;28;20103;-72
2022/10/19 01:11:36;;;;;;;6.85;4.10;;;;;;;;;;5069537;28;20040;-72
2022/10/19 01:14:02;;;;;;;9.35;4.63;;;;;;;;;;5050818;28;20082;-72
2022/10/19 01:16:35;;;;;;;6.15;4.03;;;;;;;;;;5062303;28;20048;-71
2022/10/19 01:19:10;;;;;;;6.40;4.53;;;;;;;;;;5070245;28;20040;-72
2022/10/19 01:21:45;;;;;;;9.18;5.18;;;;;;;;;;5044547;28;20044;-72
2022/10/19 01:24:14;;;;;;;5.15;3.80;;;;;;;;;;5069239;28;20411;-72
2022/10/19 01:26:40;;;;;;;8.93;3.97;;;;;;;;;;5053834;28;20103;-72
2022/10/19 01:29:19;;;;;;;7.60;4.28;;;;;;;;;;5069036;28;20593;-72
2022/10/19 01:31:45;;;;;;;8.38;4.35;;;;;;;;;;5066218;28;20495;-71
2022/10/19 01:34:17;;;;;;;8.50;5.03;;;;;;;;;;5057360;28;20135;-72
2022/10/19 01:36:48;;;;;;;8.00;4.10;;;;;;;;;;5051486;28;20033;-72
2022/10/19 01:39:27;;;;;;;8.15;4.60;;;;;;;;;;5066886;28;20041;-72
2022/10/19 01:41:53;;;;;;;6.97;4.15;;;;;;;;;;5061219;28;20553;-72
2022/10/19 01:44:28;;;;;;;5.63;4.50;;;;;;;;;;5063592;28;20061;-72
2022/10/19 01:46:59;;;;;;;5.90;4.28;;;;;;;;;;5039933;28;20049;-72
2022/10/19 01:49:32;;;;;;;6.93;4.30;;;;;;;;;;5044906;28;20040;-72
2022/10/19 01:52:00;;;;;;;8.98;4.40;;;;;;;;;;5068176;28;20550;-72
2022/10/19 01:54:29;;;;;;;6.80;4.07;;;;;;;;;;5080098;27;21889;-72
2022/10/19 01:56:57;;;;;;;9.70;5.53;;;;;;;;;;5066327;28;20040;-71
2022/10/19 01:59:23;;;;;;;7.97;4.35;;;;;;;;;;5065115;28;20049;-72
2022/10/19 02:01:51;;;;;;;10.40;4.32;;;;;;;;;;5051972;28;20048;-72
2022/10/19 02:04:19;;;;;;;8.13;4.22;;;;;;;;;;5053375;28;20040;-71
2022/10/19 02:06:45;;;;;;;10.32;4.35;;;;;;;;;;5066410;28;20051;-71
2022/10/19 02:09:17;;;;;;;6.45;3.90;;;;;;;;;;5050978;28;20044;-71
2022/10/19 02:11:45;;;;;;;6.03;4.32;;;;;;;;;;5038247;28;20590;-72
2022/10/19 02:14:13;;;;;;;6.53;3.88;;;;;;;;;;5042358;28;20041;-70
2022/10/19 02:16:51;;;;;;;5.32;3.58;;;;;;;;;;5066137;28;20082;-72
2022/10/19 02:19:17;;;;;;;6.85;3.95;;;;;;;;;;5064347;28;21127;-72
2022/10/19 02:21:44;;;;;;;6.85;4.70;;;;;;;;;;5064931;28;20037;-72
2022/10/19 02:24:10;;;;;;;5.07;3.63;;;;;;;;;;5051522;28;20293;-72
2022/10/19 02:26:36;;;;;;;8.93;4.68;;;;;;;;;;5066024;28;20864;-72
2022/10/19 02:29:02;;;;;;;6.75;4.40;;;;;;;;;;5064424;28;20096;-72
2022/10/19 02:31:29;;;;;;;11.45;4.82;;;;;;;;;;5066772;28;20121;-71
2022/10/19 02:33:55;;;;;;;6.60;4.03;;;;;;;;;;5050849;28;20051;-71
2022/10/19 02:36:21;;;;;;;9.70;3.90;;;;;;;;;;5066494;28;20641;-71
2022/10/19 02:38:47;;;;;;;6.75;3.60;;;;;;;;;;5066888;28;20048;-72
2022/10/19 02:41:27;;;;;;;9.15;4.45;;;;;;;;;;5066353;28;20043;-72
2022/10/19 02:43:55;;;;;;;10.23;3.95;;;;;;;;;;5046083;28;20044;-72
2022/10/19 02:46:32;;;;;;;7.40;4.05;;;;;;;;;;5057846;28;20131;-72
2022/10/19 02:48:58;;;;;;;8.27;4.75;;;;;;;;;;5069734;28;20052;-71
2022/10/19 02:51:29;;;;;;;10.90;4.65;;;;;;;;;;5071416;28;20036;-71
2022/10/19 02:53:55;;;;;;;8.32;4.40;;;;;;;;;;5055858;28;20404;-71
2022/10/19 02:56:21;;;;;;;8.07;4.70;;;;;;;;;;5050891;28;20055;-72
2022/10/19 02:58:47;;;;;;;11.65;4.63;;;;;;;;;;5073596;28;20114;-71
2022/10/19 03:13:24;;;;;;;7.18;4.18;;;;;;;;;;5073998;28;38475;-72
2022/10/19 03:15:50;;;;;;;9.02;4.45;;;;;;;;;;5072548;28;20040;-72
2022/10/19 03:18:16;;;;;;;4.90;3.58;;;;;;;;;;5074710;28;20047;-72
2022/10/19 03:20:42;;;;;;;13.27;4.40;;;;;;;;;;5050369;28;20087;-72
2022/10/19 03:23:08;;;;;;;8.15;4.20;;;;;;;;;;5073992;28;20041;-72
2022/10/19 03:25:34;;;;;;;7.53;4.30;;;;;;;;;;5073648;28;20051;-72
2022/10/19 03:28:01;;;;;;;8.43;5.20;;;;;;;;;;5073515;28;20431;-72
2022/10/19 03:30:27;;;;;;;10.32;4.47;;;;;;;;;;5047913;28;20076;-72
2022/10/19 03:32:53;;;;;;;6.93;4.38;;;;;;;;;;5070328;28;20041;-71
2022/10/19 03:35:19;;;;;;;6.07;4.25;;;;;;;;;;5073565;28;20044;-72
2022/10/19 03:37:45;;;;;;;6.55;4.32;;;;;;;;;;5072896;28;20036;-72
2022/10/19 03:40:11;;;;;;;7.22;3.95;;;;;;;;;;5055103;28;20036;-71
2022/10/19 03:42:37;;;;;;;7.07;4.22;;;;;;;;;;5072279;28;20049;-72
2022/10/19 03:45:03;;;;;;;7.72;4.72;;;;;;;;;;5064475;28;20404;-71
2022/10/19 03:47:29;;;;;;;11.50;4.90;;;;;;;;;;5074378;28;20044;-72
2022/10/19 03:49:55;;;;;;;6.85;4.32;;;;;;;;;;5071616;28;20037;-72
2022/10/19 03:52:21;;;;;;;5.82;4.50;;;;;;;;;;5074747;28;20120;-71
2022/10/19 03:54:50;;;;;;;11.80;5.07;;;;;;;;;;5055242;28;20044;-71
2022/10/19 03:57:17;;;;;;;10.93;4.30;;;;;;;;;;5057113;28;20585;-72
2022/10/19 03:59:43;;;;;;;5.88;3.90;;;;;;;;;;5075468;28;20174;-71
2022/10/19 04:02:09;;;;;;;8.65;5.75;;;;;;;;;;5071840;28;20176;-71
2022/10/19 04:04:35;;;;;;;7.50;4.20;;;;;;;;;;5073054;28;20048;-72
2022/10/19 04:07:01;;;;;;;8.00;5.15;;;;;;;;;;5063549;28;20118;-71
2022/10/19 04:09:27;;;;;;;8.57;3.78;;;;;;;;;;5073288;28;20124;-71
2022/10/19 04:11:53;;;;;;;8.63;5.75;;;;;;;;;;5071824;28;20569;-71
2022/10/19 04:14:21;;;;;;;6.03;4.10;;;;;;;;;;5072885;28;20254;-71
2022/10/19 04:16:47;;;;;;;8.88;3.92;;;;;;;;;;5062597;28;20557;-72
2022/10/19 04:19:13;;;;;;;6.72;4.43;;;;;;;;;;5072800;28;20048;-72
2022/10/19 04:21:40;;;;;;;9.35;4.45;;;;;;;;;;5072606;28;20411;-72
2022/10/19 04:24:16;;;;;;;5.97;4.30;;;;;;;;;;5072601;28;20033;-72
2022/10/19 04:26:44;;;;;;;11.13;5.13;;;;;;;;;;5071857;28;20079;-71
2022/10/19 04:29:10;;;;;;;10.57;5.30;;;;;;;;;;5066985;28;20110;-71
2022/10/19 04:31:37;;;;;;;7.55;5.35;;;;;;;;;;5075061;28;20057;-72
2022/10/19 04:34:03;;;;;;;7.50;4.57;;;;;;;;;;5074625;28;20175;-71
2022/10/19 04:36:29;;;;;;;9.27;4.97;;;;;;;;;;5075904;28;20123;-72
2022/10/19 04:38:55;;;;;;;11.50;5.00;;;;;;;;;;5078860;28;20112;-71
2022/10/19 04:41:21;;;;;;;8.95;4.45;;;;;;;;;;5052604;28;20049;-71
2022/10/19 04:43:48;;;;;;;10.32;5.22;;;;;;;;;;5077823;28;20068;-72
2022/10/19 04:46:15;;;;;;;6.57;4.78;;;;;;;;;;5075148;28;20041;-72
2022/10/19 04:48:41;;;;;;;7.40;5.07;;;;;;;;;;5058181;28;20048;-71
2022/10/19 04:51:08;;;;;;;9.13;5.15;;;;;;;;;;5078034;28;20167;-71
2022/10/19 04:53:34;;;;;;;9.55;5.13;;;;;;;;;;5076938;28;20041;-72
2022/10/19 04:56:03;;;;;;;10.75;4.47;;;;;;;;;;5055584;28;20174;-71
2022/10/19 04:58:29;;;;;;;12.80;5.28;;;;;;;;;;5057611;28;20049;-71
2022/10/19 05:00:55;;;;;;;6.53;4.55;;;;;;;;;;5053210;28;20129;-72
2022/10/19 05:03:21;;;;;;;7.85;4.63;;;;;;;;;;5076741;28;20055;-71
2022/10/19 05:05:47;;;;;;;6.88;4.80;;;;;;;;;;5054808;28;20049;-72
2022/10/19 05:08:13;;;;;;;6.65;4.72;;;;;;;;;;5051231;28;20079;-71
2022/10/19 05:10:40;;;;;;;8.82;5.32;;;;;;;;;;5058935;28;20051;-71
2022/10/19 05:13:06;;;;;;;6.60;4.35;;;;;;;;;;5074808;28;20055;-71
2022/10/19 05:15:32;;;;;;;8.25;5.25;;;;;;;;;;5050124;28;20819;-70
2022/10/19 05:17:58;;;;;;;7.35;5.00;;;;;;;;;;5066482;28;20037;-71
2022/10/19 05:20:24;;;;;;;7.43;4.57;;;;;;;;;;5072949;28;20127;-75
2022/10/19 05:22:50;;;;;;;11.27;5.80;;;;;;;;;;5073048;28;20865;-72
2022/10/19 05:25:17;;;;;;;10.07;4.47;;;;;;;;;;5073445;28;20051;-71
2022/10/19 05:27:43;;;;;;;12.77;5.93;;;;;;;;;;5052804;28;20478;-71
2022/10/19 05:30:09;;;;;;;8.15;4.97;;;;;;;;;;5051171;28;20259;-70
2022/10/19 05:32:35;;;;;;;8.82;4.85;;;;;;;;;;5074692;28;20562;-71
2022/10/19 05:35:01;;;;;;;8.35;4.63;;;;;;;;;;5074633;28;20051;-70
2022/10/19 05:37:27;;;;;;;7.15;4.47;;;;;;;;;;5052554;28;20036;-70
2022/10/19 05:39:56;;;;;;;9.20;4.88;;;;;;;;;;5074918;28;20102;-70
2022/10/19 05:42:22;;;;;;;9.00;5.15;;;;;;;;;;5075406;28;20098;-70
2022/10/19 05:44:48;;;;;;;9.57;5.40;;;;;;;;;;5051305;28;20040;-74
2022/10/19 05:47:14;;;;;;;9.32;5.13;;;;;;;;;;5055431;28;20535;-71
2022/10/19 05:49:40;;;;;;;5.68;4.57;;;;;;;;;;5054495;28;20068;-72
2022/10/19 05:52:06;;;;;;;9.35;4.90;;;;;;;;;;5076347;28;20040;-71
2022/10/19 05:54:32;;;;;;;11.18;4.95;;;;;;;;;;5072162;28;20593;-72
2022/10/19 05:56:58;;;;;;;10.00;4.75;;;;;;;;;;5067629;28;20072;-72
2022/10/19 05:59:25;;;;;;;11.27;6.05;;;;;;;;;;5052749;28;20036;-73
2022/10/19 06:01:51;;;;;;;8.52;5.10;;;;;;;;;;5074146;28;20149;-71
2022/10/19 06:04:17;;;;;;;9.50;5.80;;;;;;;;;;5069611;28;20033;-72
2022/10/19 06:06:43;;;;;;;9.55;5.50;;;;;;;;;;5067712;28;20075;-73
2022/10/19 06:09:09;;;;;;;9.57;5.72;;;;;;;;;;5072248;28;20041;-72
2022/10/19 06:11:37;;;;;;;7.38;4.70;;;;;;;;;;5047615;28;20535;-73
2022/10/19 06:14:06;;;;;;;9.45;4.95;;;;;;;;;;5070832;28;20037;-77
2022/10/19 06:16:33;;;;;;;9.50;5.43;;;;;;;;;;5069372;28;20036;-72
2022/10/19 06:18:59;;;;;;;8.80;4.63;;;;;;;;;;5075625;28;20052;-72
2022/10/19 06:21:27;;;;;;;8.40;5.95;;;;;;;;;;5048868;28;20049;-72
2022/10/19 06:23:54;;;;;;;9.35;5.47;;;;;;;;;;5070053;28;20094;-72
2022/10/19 06:26:21;;;;;;;8.15;4.80;;;;;;;;;;5069546;28;20056;-72
2022/10/19 06:28:47;;;;;;;7.38;5.32;;;;;;;;;;5073562;28;20040;-71
2022/10/19 06:31:13;;;;;;;8.50;5.15;;;;;;;;;;5071897;28;20060;-71
2022/10/19 06:33:40;;;;;;;10.93;5.68;;;;;;;;;;5048170;28;20580;-71
2022/10/19 06:36:06;;;;;;;9.75;6.05;;;;;;;;;;5053060;28;20871;-72
2022/10/19 06:38:32;;;;;;;8.38;5.88;;;;;;;;;;5071178;28;20865;-72
2022/10/19 06:40:59;;;;;;;8.23;5.18;;;;;;;;;;5072259;28;20046;-78
2022/10/19 06:43:25;;;;;;;9.20;5.88;;;;;;;;;;5073068;28;20449;-72
2022/10/19 06:45:51;;;;;;;9.90;6.35;;;;;;;;;;5047562;28;20045;-72
2022/10/19 06:48:17;;;;;;;9.13;5.72;;;;;;;;;;5074031;28;20041;-73
2022/10/19 06:50:43;;;;;;;10.63;6.07;;;;;;;;;;5074568;28;20049;-72
2022/10/19 06:53:10;;;;;;;17.10;6.45;;;;;;;;;;5072907;28;20037;-72
2022/10/19 06:55:36;;;;;;;11.20;6.57;;;;;;;;;;5072912;28;20040;-71
2022/10/19 06:58:02;;;;;;;8.98;5.20;;;;;;;;;;5056057;28;20661;-72
2022/10/19 07:00:28;;;;;;;8.55;6.05;;;;;;;;;;5072996;28;21190;-72
2022/10/19 07:02:55;;;;;;;9.23;5.82;;;;;;;;;;5076740;28;20102;-73
2022/10/19 07:05:21;;;;;;;14.32;6.22;;;;;;;;;;5057800;28;20037;-71
2022/10/19 07:07:47;;;;;;;9.52;5.60;;;;;;;;;;5076390;28;20636;-72
2022/10/19 07:10:13;;;;;;;11.10;5.88;;;;;;;;;;5051067;28;20099;-71
2022/10/19 07:12:39;;;;;;;10.15;5.97;;;;;;;;;;5077367;28;20514;-72
2022/10/19 07:15:06;;;;;;;12.45;6.35;;;;;;;;;;5065440;28;20069;-72
2022/10/19 07:17:32;;;;;;;10.77;5.22;;;;;;;;;;5067562;28;20400;-71
2022/10/19 07:19:58;;;;;;;9.63;6.60;;;;;;;;;;5051521;28;20072;-73
2022/10/19 07:22:24;;;;;;;12.25;5.22;;;;;;;;;;5075910;28;20255;-71
2022/10/19 07:24:51;;;;;;;9.57;5.93;;;;;;;;;;5074546;28;20040;-72
2022/10/19 07:27:17;;;;;;;8.27;6.25;;;;;;;;;;5054097;28;20044;-72
2022/10/19 07:29:43;;;;;;;9.60;6.35;;;;;;;;;;5075630;28;20084;-72
2022/10/19 07:32:09;;;;;;;9.02;5.63;;;;;;;;;;5050776;28;20773;-73
2022/10/19 07:34:35;;;;;;;8.50;5.05;;;;;;;;;;5065677;28;20089;-71
2022/10/19 07:37:01;;;;;;;14.63;6.57;;;;;;;;;;5075502;28;20037;-71
2022/10/19 07:39:27;;;;;;;6.63;5.28;;;;;;;;;;5074905;28;20851;-72
2022/10/19 07:41:53;;;;;;;17.05;5.82;;;;;;;;;;5056682;28;20045;-72
2022/10/19 07:44:20;;;;;;;9.43;5.38;;;;;;;;;;5076374;28;20071;-72
2022/10/19 07:46:46;;;;;;;11.25;5.72;;;;;;;;;;5074852;28;20547;-72
2022/10/19 07:49:17;;;;;;;8.50;4.78;;;;;;;;;;5074806;28;20052;-72
2022/10/19 07:51:43;;;;;;;13.23;5.68;;;;;;;;;;5075160;28;20043;-72
2022/10/19 07:54:10;;;;;;;10.13;6.93;;;;;;;;;;5055799;28;20047;-72
2022/10/19 07:56:36;;;;;;;8.00;5.13;;;;;;;;;;5075124;28;20041;-72
2022/10/19 07:59:03;;;;;;;9.93;5.38;;;;;;;;;;5075987;28;20044;-71
2022/10/19 08:01:34;;;;;;;10.98;6.03;;;;;;;;;;5049186;28;20680;-72
2022/10/19 08:04:00;;;;;;;9.63;5.57;;;;;;;;;;5078995;28;20037;-72
2022/10/19 08:06:27;;;;;;;11.63;6.50;;;;;;;;;;5059105;28;20041;-72
2022/10/19 08:08:53;;;;;;;10.10;5.13;;;;;;;;;;5079485;28;20045;-72
2022/10/19 08:11:21;;;;;;;10.52;5.60;;;;;;;;;;5058551;28;20029;-72
2022/10/19 08:13:47;;;;;;;11.77;6.75;;;;;;;;;;5079729;28;20040;-72
2022/10/19 08:16:35;;;;;;;6.80;4.70;;;;;;;;;;5058826;28;20092;-72
2022/10/19 08:19:03;;;;;;;8.63;6.20;;;;;;;;;;5079877;28;20040;-72
2022/10/19 08:21:30;;;;;;;7.68;5.78;;;;;;;;;;5057262;28;20037;-72
2022/10/19 08:23:56;;;;;;;8.20;6.68;;;;;;;;;;5079743;28;20099;-71
2022/10/19 08:26:22;;;;;;;11.07;5.93;;;;;;;;;;5080705;28;20075;-71
2022/10/19 08:28:49;;;;;;;12.75;6.13;;;;;;;;;;5078439;28;20055;-71
2022/10/19 08:31:16;;;;;;;9.90;5.32;;;;;;;;;;5078826;28;20049;-71
2022/10/19 08:33:42;;;;;;;12.48;6.30;;;;;;;;;;5078534;28;20098;-72
2022/10/19 08:36:09;;;;;;;11.68;6.93;;;;;;;;;;5078519;28;20028;-73
2022/10/19 08:38:36;;;;;;;8.63;6.07;;;;;;;;;;5057695;28;20048;-73
2022/10/19 08:41:22;;;;;;;8.40;6.35;;;;;;;;;;5077629;28;20047;-72
2022/10/19 08:44:03;;;;;;;11.18;6.00;;;;;;;;;;5061351;28;20094;-71
2022/10/19 08:46:48;;;;;;;12.17;5.77;;;;;;;;;;5062801;28;20090;-71
2022/10/19 08:49:18;;;;;;;8.02;5.45;;;;;;;;;;5078941;28;20290;-72
2022/10/19 08:51:46;;;;;;;15.05;6.25;;;;;;;;;;5077672;28;20119;-72
2022/10/19 08:54:15;;;;;;;8.27;5.75;;;;;;;;;;5076883;28;20037;-72
2022/10/19 08:56:59;;;;;;;11.13;5.65;;;;;;;;;;5059236;28;20844;-72
2022/10/19 08:59:40;;;;;;;12.00;5.82;;;;;;;;;;5078435;28;20048;-71
2022/10/19 09:02:21;;;;;;;11.55;6.22;;;;;;;;;;5078504;28;20140;-72
2022/10/19 09:04:55;;;;;;;18.57;8.13;;;;;;;;;;5077937;28;20075;-71
2022/10/19 09:07:21;;;;;;;11.75;5.70;;;;;;;;;;5059338;28;20044;-71
2022/10/19 09:10:00;;;;;;;7.60;5.57;;;;;;;;;;5076933;28;20098;-71
2022/10/19 09:12:38;;;;;;;6.75;5.40;;;;;;;;;;5077767;28;20116;-72
2022/10/19 09:15:06;;;;;;;9.10;5.25;;;;;;;;;;5057874;28;20049;-72
2022/10/19 09:17:32;;;;;;;19.80;5.90;;;;;;;;;;5075771;28;20128;-73
2022/10/19 09:20:22;;;;;;;13.15;6.03;;;;;;;;;;5074464;28;20613;-72
2022/10/19 09:22:56;;;;;;;7.72;5.53;;;;;;;;;;5078393;28;20874;-71
2022/10/19 09:25:22;;;;;;;6.10;4.68;;;;;;;;;;5052139;28;20060;-72
2022/10/19 09:27:52;;;;;;;8.63;5.43;;;;;;;;;;5078070;28;20036;-72
2022/10/19 09:30:20;;;;;;;8.43;4.88;;;;;;;;;;5052398;28;20052;-72
2022/10/19 09:32:47;;;;;;;14.27;5.78;;;;;;;;;;5060262;28;20044;-72
2022/10/19 09:35:28;;;;;;;8.30;5.43;;;;;;;;;;5074929;28;20041;-72
2022/10/19 09:37:54;;;;;;;10.82;4.47;;;;;;;;;;5077041;28;20124;-72
2022/10/19 09:40:22;;;;;;;10.75;5.95;;;;;;;;;;5075539;28;20060;-71
2022/10/19 09:42:56;;;;;;;12.48;5.40;;;;;;;;;;5077211;28;20947;-71
2022/10/19 09:45:44;;;;;;;7.30;5.18;;;;;;;;;;5066596;28;20043;-73
2022/10/19 09:48:20;;;;;;;17.02;6.65;;;;;;;;;;5074369;28;20596;-72
2022/10/19 09:50:50;;;;;;;8.82;5.15;;;;;;;;;;5054542;28;20045;-72
2022/10/19 09:53:20;;;;;;;6.63;4.32;;;;;;;;;;5073530;28;20044;-72
2022/10/19 09:56:06;;;;;;;8.50;5.20;;;;;;;;;;5076003;28;20047;-71
2022/10/19 09:58:33;;;;;;;11.45;5.20;;;;;;;;;;5075251;28;20102;-72
2022/10/19 10:01:00;;;;;;;10.52;4.65;;;;;;;;;;5076973;28;20094;-71
2022/10/19 10:03:30;;;;;;;8.18;5.20;;;;;;;;;;5058424;28;20032;-72
2022/10/19 10:05:58;;;;;;;8.10;4.47;;;;;;;;;;5058648;28;20094;-71
2022/10/19 10:08:26;;;;;;;7.22;4.63;;;;;;;;;;5057634;28;20109;-72
2022/10/19 10:10:58;;;;;;;8.25;4.63;;;;;;;;;;5052873;28;20112;-72
2022/10/19 10:13:26;;;;;;;9.80;5.47;;;;;;;;;;5078133;28;20040;-72
2022/10/19 10:15:57;;;;;;;10.32;3.88;;;;;;;;;;5075308;28;20633;-71
2022/10/19 10:18:24;;;;;;;12.25;5.13;;;;;;;;;;5075664;28;20100;-72
2022/10/19 10:20:58;;;;;;;7.53;4.03;;;;;;;;;;5052814;28;20588;-73
2022/10/19 10:23:26;;;;;;;8.63;4.32;;;;;;;;;;5056694;28;20091;-71
2022/10/19 10:25:55;;;;;;;9.73;4.22;;;;;;;;;;5076451;28;20079;-72
2022/10/19 10:28:22;;;;;;;5.18;3.47;;;;;;;;;;5051265;28;20560;-71
2022/10/19 10:30:53;;;;;;;11.45;5.40;;;;;;;;;;5058560;28;20048;-72
2022/10/19 10:33:25;;;;;;;6.25;3.90;;;;;;;;;;5057332;28;20048;-72
2022/10/19 10:35:55;;;;;;;9.13;4.53;;;;;;;;;;5060222;28;20074;-70
2022/10/19 10:38:23;;;;;;;7.15;4.68;;;;;;;;;;5057555;28;20700;-70
2022/10/19 10:40:51;;;;;;;6.03;4.07;;;;;;;;;;5057813;28;20588;-72
2022/10/19 10:43:18;;;;;;;6.68;3.70;;;;;;;;;;5075607;28;20128;-72
2022/10/19 10:45:54;;;;;;;5.60;3.88;;;;;;;;;;5059194;28;20040;-72
2022/10/19 10:48:27;;;;;;;8.82;4.18;;;;;;;;;;5077266;28;20047;-71
2022/10/19 10:50:53;;;;;;;4.85;3.65;;;;;;;;;;5052180;28;21246;-71
2022/10/19 10:53:35;;;;;;;5.07;3.55;;;;;;;;;;5075346;28;20044;-71
2022/10/19 10:56:01;;;;;;;11.05;4.88;;;;;;;;;;5075474;28;20033;-69
2022/10/19 10:58:33;;;;;;;6.25;3.35;;;;;;;;;;5077135;28;20041;-70
2022/10/19 11:01:01;;;;;;;6.30;3.17;;;;;;;;;;5076673;28;20935;-71
2022/10/19 11:03:28;;;;;;;6.75;3.50;;;;;;;;;;5051860;28;20052;-70
2022/10/19 11:05:58;;;;;;;6.72;4.35;;;;;;;;;;5075918;28;20134;-70
2022/10/19 11:08:27;;;;;;;5.65;4.07;;;;;;;;;;5057738;28;20093;-70
2022/10/19 11:11:05;;;;;;;6.53;3.78;;;;;;;;;;5077147;28;20068;-71
2022/10/19 11:13:40;;;;;;;5.97;3.85;;;;;;;;;;5075093;28;20060;-70
2022/10/19 11:16:14;;;;;;;7.28;4.20;;;;;;;;;;5078162;28;20051;-70
2022/10/19 11:18:41;;;;;;;6.78;3.58;;;;;;;;;;5057410;28;20044;-71
2022/10/19 11:21:27;;;;;;;8.10;4.15;;;;;;;;;;5051698;28;20461;-71
2022/10/19 11:24:02;;;;;;;5.10;3.78;;;;;;;;;;5064456;28;20061;-71
2022/10/19 11:26:49;;;;;;;6.28;3.70;;;;;;;;;;5075639;28;20533;-72
2022/10/19 11:29:21;;;;;;;8.63;3.65;;;;;;;;;;5052722;28;20619;-70
2022/10/19 11:31:49;;;;;;;6.80;3.75;;;;;;;;;;5049193;28;20084;-71
2022/10/19 11:34:18;;;;;;;5.32;2.95;;;;;;;;;;5051616;28;20957;-71
2022/10/19 11:36:51;;;;;;;9.70;3.83;;;;;;;;;;5057416;28;20132;-72
2022/10/19 11:39:43;;;;;;;6.63;3.55;;;;;;;;;;5080257;28;20051;-72
2022/10/19 11:42:28;;;;;;;5.22;3.40;;;;;;;;;;5064107;28;20454;-72
2022/10/19 11:45:03;;;;;;;5.82;3.28;;;;;;;;;;5058826;28;20472;-73
2022/10/19 11:47:35;;;;;;;7.30;3.08;;;;;;;;;;5062090;28;20438;-72
2022/10/19 11:50:05;;;;;;;4.68;3.00;;;;;;;;;;5077703;28;20044;-71
2022/10/19 11:52:31;;;;;;;17.83;4.63;;;;;;;;;;5060884;28;20073;-72
2022/10/19 11:55:16;;;;;;;10.32;4.05;;;;;;;;;;5078649;28;20075;-72
2022/10/19 11:58:12;;;;;;;11.30;4.00;;;;;;;;;;5080521;28;20510;-72
2022/10/19 12:00:46;;;;;;;23.42;3.53;;;;;;;;;;5049069;28;21220;-72
2022/10/19 12:03:12;;;;;;;7.53;3.50;;;;;;;;;;5052498;28;21083;-72
2022/10/19 12:05:58;;;;;;;9.90;3.13;;;;;;;;;;5055782;28;20127;-72
2022/10/19 12:08:34;;;;;;;6.63;3.38;;;;;;;;;;5077960;28;20037;-71
2022/10/19 12:11:00;;;;;;;7.10;3.45;;;;;;;;;;5061108;28;20047;-72
2022/10/19 12:13:39;;;;;;;5.60;3.17;;;;;;;;;;5053601;28;20175;-72
2022/10/19 12:16:06;;;;;;;8.55;3.25;;;;;;;;;;5077937;28;20044;-72
2022/10/19 12:18:42;;;;;;;8.57;3.85;;;;;;;;;;5069550;28;20124;-72
2022/10/19 12:21:28;;;;;;;6.03;3.80;;;;;;;;;;5059870;28;20095;-72
2022/10/19 12:23:55;;;;;;;8.82;3.13;;;;;;;;;;5079882;28;20126;-70
2022/10/19 12:26:21;;;;;;;7.13;4.15;;;;;;;;;;5077545;28;20075;-71
2022/10/19 12:28:50;;;;;;;7.40;3.53;;;;;;;;;;5055069;28;21275;-71
2022/10/19 12:31:16;;;;;;;6.07;3.63;;;;;;;;;;5038955;28;20053;-71
2022/10/19 12:34:09;;;;;;;6.25;3.38;;;;;;;;;;5040211;28;20104;-71
2022/10/19 12:36:44;;;;;;;5.10;2.95;;;;;;;;;;5033980;28;20143;-71
2022/10/19 12:39:16;;;;;;;4.35;2.80;;;;;;;;;;5040967;28;20072;-72
2022/10/19 12:41:45;;;;;;;6.30;2.90;;;;;;;;;;5057056;28;20076;-71
2022/10/19 12:44:14;;;;;;;9.32;3.97;;;;;;;;;;5040662;28;20098;-73
2022/10/19 12:46:40;;;;;;;7.72;3.70;;;;;;;;;;5040192;28;20046;-72
2022/10/19 12:49:25;;;;;;;5.03;3.38;;;;;;;;;;5034332;28;20146;-72
2022/10/19 12:51:52;;;;;;;8.52;4.75;;;;;;;;;;5056930;28;20072;-71
2022/10/19 12:54:21;;;;;;;5.78;3.53;;;;;;;;;;5059830;28;20041;-71
2022/10/19 12:56:55;;;;;;;19.52;4.05;;;;;;;;;;5040746;28;20037;-71
2022/10/19 12:59:31;;;;;;;9.52;3.35;;;;;;;;;;5058823;28;20041;-71
2022/10/19 13:01:58;;;;;;;8.80;3.63;;;;;;;;;;5056674;28;20049;-71
2022/10/19 13:04:30;;;;;;;11.93;4.78;;;;;;;;;;5040967;28;20041;-71
2022/10/19 13:06:56;;;;;;;12.50;3.58;;;;;;;;;;5040143;28;20446;-72
2022/10/19 13:09:33;;;;;;;4.57;3.28;;;;;;;;;;5033170;28;20071;-71
2022/10/19 13:12:15;;;;;;;7.63;3.67;;;;;;;;;;5057368;28;20072;-71
2022/10/19 13:14:51;;;;;;;9.00;4.32;;;;;;;;;;5039930;28;20092;-72
2022/10/19 13:17:33;;;;;;;6.70;3.67;;;;;;;;;;5039930;28;20179;-72
2022/10/19 13:20:15;;;;;;;8.70;3.22;;;;;;;;;;5057650;28;20045;-71
2022/10/19 13:22:43;;;;;;;9.90;3.00;;;;;;;;;;5058144;28;20045;-72
2022/10/19 13:25:16;;;;;;;13.30;5.32;;;;;;;;;;5056703;28;20281;-71
2022/10/19 13:27:49;;;;;;;10.00;4.25;;;;;;;;;;5057201;28;20566;-72
2022/10/19 13:30:34;;;;;;;11.98;3.92;;;;;;;;;;5056051;28;20049;-72
2022/10/19 13:33:21;;;;;;;10.45;4.63;;;;;;;;;;5058802;28;20043;-72
2022/10/19 13:35:47;;;;;;;6.38;3.35;;;;;;;;;;5030111;28;20060;-71
2022/10/19 13:38:17;;;;;;;8.02;3.88;;;;;;;;;;5057745;28;20037;-72
2022/10/19 13:40:49;;;;;;;9.85;4.03;;;;;;;;;;5057909;28;20061;-71
2022/10/19 13:43:20;;;;;;;8.88;3.88;;;;;;;;;;5037861;28;20064;-71
2022/10/19 13:45:54;;;;;;;8.35;3.25;;;;;;;;;;5049759;28;20072;-72
2022/10/19 13:48:49;;;;;;;6.40;3.30;;;;;;;;;;5057381;28;20423;-71
2022/10/19 13:51:18;;;;;;;10.13;3.60;;;;;;;;;;5018853;28;20057;-71
2022/10/19 13:54:00;;;;;;;7.93;3.40;;;;;;;;;;5029652;28;20048;-71
2022/10/19 13:56:45;;;;;;;8.68;3.60;;;;;;;;;;5054510;28;20704;-71
2022/10/19 13:59:30;;;;;;;4.88;2.95;;;;;;;;;;5055478;28;20127;-72
2022/10/19 14:02:15;;;;;;;7.50;3.45;;;;;;;;;;5055551;28;20098;-71
2022/10/19 14:04:47;;;;;;;7.20;2.85;;;;;;;;;;5039990;28;20152;-73
2022/10/19 14:07:15;;;;;;;7.97;3.40;;;;;;;;;;5040442;28;20052;-72
2022/10/19 14:09:44;;;;;;;5.53;3.72;;;;;;;;;;5040320;28;20131;-72
2022/10/19 14:12:31;;;;;;;7.88;3.30;;;;;;;;;;5054187;28;20041;-71
2022/10/19 14:14:57;;;;;;;9.25;3.25;;;;;;;;;;5038091;28;20709;-72
2022/10/19 14:17:26;;;;;;;7.90;3.63;;;;;;;;;;5057875;28;20037;-71
2022/10/19 14:19:53;;;;;;;6.38;3.08;;;;;;;;;;5056587;28;20052;-71
2022/10/19 14:22:19;;;;;;;5.57;3.30;;;;;;;;;;5057496;28;20037;-71
2022/10/19 14:24:45;;;;;;;7.93;3.42;;;;;;;;;;5057016;28;20073;-72
2022/10/19 14:27:16;;;;;;;10.07;3.78;;;;;;;;;;5054903;28;20041;-71
2022/10/19 14:29:46;;;;;;;7.15;3.20;;;;;;;;;;5031924;28;20590;-72
2022/10/19 14:32:12;;;;;;;9.05;3.75;;;;;;;;;;5054503;28;20051;-72
2022/10/19 14:34:42;;;;;;;12.05;3.40;;;;;;;;;;5055317;28;20490;-72
2022/10/19 14:37:14;;;;;;;5.10;3.33;;;;;;;;;;5032778;28;20041;-72
2022/10/19 14:39:40;;;;;;;7.18;3.42;;;;;;;;;;5055589;28;20052;-71
2022/10/19 14:42:09;;;;;;;8.07;3.72;;;;;;;;;;5032930;28;20052;-72
2022/10/19 14:44:36;;;;;;;8.23;3.25;;;;;;;;;;5057109;28;20033;-72
2022/10/19 14:47:06;;;;;;;4.65;3.08;;;;;;;;;;5033440;28;20127;-70
2022/10/19 14:49:32;;;;;;;11.63;5.00;;;;;;;;;;5056547;28;20060;-74
2022/10/19 14:52:01;;;;;;;5.70;3.28;;;;;;;;;;5056124;28;20029;-70
2022/10/19 14:54:30;;;;;;;11.88;3.75;;;;;;;;;;5039525;28;20050;-72
2022/10/19 14:57:00;;;;;;;7.40;3.58;;;;;;;;;;5057294;28;20047;-71
2022/10/19 14:59:33;;;;;;;5.70;3.20;;;;;;;;;;5057094;28;20052;-72
2022/10/19 15:02:00;;;;;;;6.00;2.95;;;;;;;;;;5071816;28;20120;-72
2022/10/19 15:04:31;;;;;;;8.02;3.50;;;;;;;;;;5039700;28;20049;-74
2022/10/19 15:06:59;;;;;;;4.60;3.42;;;;;;;;;;5038635;28;20063;-72